createdAt,value
2022-11-17T00:00:37.831Z,4.00
2022-11-17T00:03:04.370Z,4.78
2022-11-17T00:05:30.841Z,4.43
2022-11-17T00:07:57.433Z,3.80
2022-11-17T00:10:24.026Z,4.07
2022-11-17T00:13:09.388Z,4.93
2022-11-17T00:15:35.961Z,3.78
2022-11-17T00:18:21.316Z,3.75
2022-11-17T00:21:06.386Z,5.57
2022-11-17T00:23:48.107Z,4.75
2022-11-17T00:26:16.906Z,3.90
2022-11-17T00:28:43.576Z,4.93
2022-11-17T00:31:32.968Z,5.72
2022-11-17T00:34:06.313Z,4.65
2022-11-17T00:36:38.024Z,5.07
2022-11-17T00:39:05.318Z,5.15
2022-11-17T00:41:32.100Z,5.03
2022-11-17T00:43:58.667Z,4.82
2022-11-17T00:46:25.693Z,4.70
2022-11-17T00:51:19.532Z,3.67
2022-11-17T00:53:46.572Z,4.65
2022-11-17T01:01:06.605Z,5.20
2022-11-17T01:03:35.454Z,5.05
2022-11-17T01:06:14.743Z,3.97
2022-11-17T01:08:41.846Z,4.00
2022-11-17T01:13:37.868Z,4.07
2022-11-17T01:16:08.124Z,4.22
2022-11-17T01:18:35.930Z,3.97
2022-11-17T01:21:17.850Z,4.15
2022-11-17T01:23:46.098Z,3.88
2022-11-17T01:26:18.266Z,4.25
2022-11-17T01:28:44.931Z,4.88
2022-11-17T01:31:13.764Z,3.97
2022-11-17T01:33:40.837Z,5.85
2022-11-17T01:38:35.561Z,6.70
2022-11-17T01:41:04.281Z,3.70
2022-11-17T01:43:42.944Z,3.55
2022-11-17T01:46:13.894Z,3.78
2022-11-17T01:48:42.382Z,4.47
2022-11-17T01:51:10.083Z,4.70
2022-11-17T01:53:37.081Z,4.15
2022-11-17T01:56:07.966Z,3.63
2022-11-17T01:58:38.160Z,3.85
2022-11-17T02:01:04.842Z,4.53
2022-11-17T02:03:35.840Z,4.30
2022-11-17T02:06:31.128Z,4.35
2022-11-17T02:08:59.528Z,4.15
2022-11-17T02:11:27.372Z,6.75
2022-11-17T02:13:55.875Z,5.10
2022-11-17T02:16:22.395Z,6.82
2022-11-17T02:18:49.209Z,4.28
2022-11-17T02:21:30.992Z,4.03
2022-11-17T02:24:40.715Z,4.25
2022-11-17T02:27:24.967Z,4.28
2022-11-17T02:30:03.739Z,3.92
2022-11-17T02:32:53.479Z,4.93
2022-11-17T02:35:48.368Z,5.72
2022-11-17T02:38:29.877Z,4.60
2022-11-17T02:41:10.276Z,5.90
2022-11-17T02:44:01.693Z,5.30
2022-11-17T02:46:32.051Z,5.85
2022-11-17T02:49:06.400Z,5.57
2022-11-17T02:51:34.844Z,5.57
2022-11-17T02:54:02.247Z,6.00
2022-11-17T02:56:28.760Z,4.97
2022-11-17T02:59:00.467Z,5.10
2022-11-17T03:01:42.206Z,5.03
2022-11-17T03:04:27.345Z,4.60
2022-11-17T03:07:24.170Z,4.85
2022-11-17T03:10:05.719Z,5.00
2022-11-17T03:13:02.213Z,4.72
2022-11-17T03:15:31.760Z,5.88
2022-11-17T03:18:01.084Z,4.85
2022-11-17T03:20:32.325Z,5.05
2022-11-17T03:23:13.839Z,4.32
2022-11-17T03:25:45.123Z,4.88
2022-11-17T03:28:12.518Z,6.18
2022-11-17T03:30:43.030Z,4.57
2022-11-17T03:33:16.123Z,5.30
2022-11-17T03:35:50.916Z,5.25
2022-11-17T03:38:20.075Z,4.90
2022-11-17T03:40:49.364Z,5.15
2022-11-17T03:43:18.729Z,5.95
2022-11-17T03:45:50.211Z,5.15
2022-11-17T03:48:26.907Z,5.10
2022-11-17T03:51:08.210Z,4.82
2022-11-17T03:53:36.022Z,4.32
2022-11-17T03:56:02.633Z,4.50
2022-11-17T03:58:33.115Z,4.70
2022-11-17T04:01:02.751Z,4.13
2022-11-17T04:03:34.347Z,5.30
2022-11-17T04:06:01.620Z,4.22
2022-11-17T04:08:30.791Z,4.22
2022-11-17T04:11:16.955Z,5.47
2022-11-17T04:14:02.711Z,4.03
2022-11-17T04:16:29.260Z,4.47
2022-11-17T04:18:58.957Z,5.40
2022-11-17T04:21:26.022Z,5.72
2022-11-17T04:23:52.619Z,4.13
2022-11-17T04:26:38.047Z,6.72
2022-11-17T04:29:04.732Z,5.18
2022-11-17T04:31:31.722Z,5.47
2022-11-17T04:36:28.917Z,6.65
2022-11-17T04:38:57.562Z,5.35
2022-11-17T04:41:44.907Z,4.40
2022-11-17T04:44:13.458Z,5.97
2022-11-17T04:46:40.886Z,4.63
2022-11-17T04:49:08.153Z,4.68
2022-11-17T04:51:35.357Z,5.28
2022-11-17T04:54:03.399Z,4.97
2022-11-17T04:56:30.182Z,4.25
2022-11-17T04:58:57.229Z,4.10
2022-11-17T05:03:53.491Z,4.57
2022-11-17T05:06:24.037Z,4.78
2022-11-17T05:08:55.634Z,5.82
2022-11-17T05:11:42.888Z,4.30
2022-11-17T05:14:09.531Z,4.97
2022-11-17T05:16:54.507Z,5.07
2022-11-17T05:19:28.127Z,4.65
2022-11-17T05:21:55.368Z,5.05
2022-11-17T05:24:22.301Z,4.55
2022-11-17T05:26:50.353Z,5.00
2022-11-17T05:29:18.902Z,4.55
2022-11-17T05:31:45.768Z,4.53
2022-11-17T05:34:14.448Z,4.72
2022-11-17T05:36:41.732Z,4.70
2022-11-17T05:39:09.538Z,5.60
2022-11-17T05:41:37.258Z,4.28
2022-11-17T05:44:04.711Z,3.92
2022-11-17T05:46:31.206Z,3.97
2022-11-17T05:48:58.493Z,4.95
2022-11-17T05:51:25.425Z,3.83
2022-11-17T05:53:52.310Z,3.90
2022-11-17T05:56:48.358Z,4.10
2022-11-17T05:59:31.671Z,3.95
2022-11-17T06:02:03.922Z,3.72
2022-11-17T06:04:31.421Z,4.15
2022-11-17T06:07:00.541Z,3.63
2022-11-17T06:09:33.734Z,3.70
2022-11-17T06:12:05.646Z,4.15
2022-11-17T06:14:33.106Z,3.20
2022-11-17T06:19:36.408Z,3.40
2022-11-17T06:22:12.275Z,3.17
2022-11-17T06:27:07.225Z,6.60
2022-11-17T06:29:34.760Z,3.67
2022-11-17T06:32:02.783Z,4.28
2022-11-17T06:34:31.845Z,4.85
2022-11-17T06:36:58.334Z,3.75
2022-11-17T06:39:24.854Z,3.85
2022-11-17T06:41:51.399Z,2.80
2022-11-17T06:44:18.329Z,3.17
2022-11-17T06:46:48.833Z,3.25
2022-11-17T06:49:15.734Z,3.45
2022-11-17T06:51:45.208Z,2.55
2022-11-17T06:54:12.959Z,5.55
2022-11-17T06:56:39.651Z,2.85
2022-11-17T06:59:06.514Z,3.17
2022-11-17T07:01:33.050Z,3.50
2022-11-17T07:03:59.567Z,3.45
2022-11-17T07:06:26.067Z,2.53
2022-11-17T07:08:52.629Z,2.67
2022-11-17T07:11:19.232Z,2.95
2022-11-17T07:13:45.966Z,2.97
2022-11-17T07:16:20.048Z,2.92
2022-11-17T07:18:50.102Z,2.50
2022-11-17T07:21:16.745Z,4.07
2022-11-17T07:23:44.997Z,3.95
2022-11-17T07:26:12.087Z,3.22
2022-11-17T07:31:08.458Z,2.47
2022-11-17T07:33:35.504Z,3.22
2022-11-17T07:38:31.863Z,3.17
2022-11-17T07:41:00.238Z,3.47
2022-11-17T07:43:27.088Z,2.75
2022-11-17T07:45:54.086Z,4.07
2022-11-17T07:50:47.124Z,2.88
2022-11-17T07:53:13.785Z,3.53
2022-11-17T07:55:40.294Z,2.40
2022-11-17T07:58:06.847Z,3.63
2022-11-17T08:00:33.855Z,2.70
2022-11-17T08:03:02.155Z,2.47
2022-11-17T08:05:30.705Z,3.13
2022-11-17T08:07:59.264Z,2.80
2022-11-17T08:10:27.141Z,3.05
2022-11-17T08:12:55.015Z,3.38
2022-11-17T08:15:22.316Z,3.58
2022-11-17T08:17:53.520Z,3.15
2022-11-17T08:20:20.561Z,3.50
2022-11-17T08:25:14.180Z,14.30
2022-11-17T08:27:41.751Z,5.00
2022-11-17T08:30:09.620Z,2.67
2022-11-17T08:32:36.850Z,3.40
2022-11-17T08:35:05.825Z,4.07
2022-11-17T08:37:32.352Z,2.67
2022-11-17T08:39:58.873Z,2.78
2022-11-17T08:42:25.769Z,4.35
2022-11-17T08:44:52.712Z,3.70
2022-11-17T08:47:19.186Z,3.10
2022-11-17T08:49:45.672Z,3.55
2022-11-17T08:52:12.420Z,3.65
2022-11-17T08:54:38.943Z,3.85
2022-11-17T08:57:05.473Z,4.03
2022-11-17T08:59:32.166Z,3.40
2022-11-17T09:01:58.648Z,2.95
2022-11-17T09:04:25.165Z,3.40
2022-11-17T09:06:51.715Z,3.15
2022-11-17T09:09:18.677Z,3.20
2022-11-17T09:11:45.271Z,2.70
2022-11-17T09:14:11.799Z,3.92
2022-11-17T09:16:38.377Z,3.42
2022-11-17T09:19:05.221Z,3.55
2022-11-17T09:21:33.797Z,5.20
2022-11-17T09:24:00.544Z,6.38
2022-11-17T09:26:27.093Z,3.58
2022-11-17T09:28:53.742Z,3.70
2022-11-17T09:31:22.317Z,3.63
2022-11-17T09:33:49.117Z,2.90
2022-11-17T09:36:17.019Z,5.63
2022-11-17T09:38:44.347Z,2.65
2022-11-17T09:41:28.126Z,3.08
2022-11-17T09:44:04.076Z,4.05
2022-11-17T09:47:01.354Z,3.63
2022-11-17T09:49:39.849Z,4.45
2022-11-17T09:55:27.267Z,5.85
2022-11-17T09:58:19.924Z,4.43
2022-11-17T10:00:48.917Z,5.70
2022-11-17T10:03:26.012Z,4.07
2022-11-17T10:05:53.340Z,3.90
2022-11-17T10:08:36.754Z,5.82
2022-11-17T10:11:23.305Z,4.50
2022-11-17T10:16:17.117Z,5.00
2022-11-17T10:18:43.640Z,4.95
2022-11-17T10:21:10.249Z,4.50
2022-11-17T10:23:46.837Z,5.63
2022-11-17T10:26:16.109Z,5.10
2022-11-17T10:28:42.998Z,5.70
2022-11-17T10:31:18.267Z,6.35
2022-11-17T10:33:51.534Z,4.85
2022-11-17T10:36:18.014Z,6.60
2022-11-17T10:38:53.416Z,5.60
2022-11-17T10:41:27.260Z,5.55
2022-11-17T10:44:02.239Z,6.43
2022-11-17T10:46:38.229Z,4.47
2022-11-17T10:49:24.768Z,6.07
2022-11-17T10:52:14.386Z,4.68
2022-11-17T10:54:41.188Z,6.40
2022-11-17T10:57:15.182Z,5.07
2022-11-17T10:59:53.444Z,5.70
2022-11-17T11:02:30.649Z,6.35
2022-11-17T11:05:08.187Z,8.30
2022-11-17T11:07:35.502Z,5.03
2022-11-17T11:10:27.106Z,5.03
2022-11-17T11:13:24.587Z,5.28
2022-11-17T11:15:51.548Z,7.60
2022-11-17T11:18:19.750Z,5.15
2022-11-17T11:20:59.819Z,5.22
2022-11-17T11:23:46.159Z,5.28
2022-11-17T11:26:33.773Z,5.03
2022-11-17T11:29:21.967Z,5.30
2022-11-17T11:32:10.659Z,5.32
2022-11-17T11:34:46.796Z,5.63
2022-11-17T11:37:15.669Z,5.45
2022-11-17T11:40:09.815Z,5.60
2022-11-17T11:42:45.589Z,6.10
2022-11-17T11:45:24.280Z,5.32
2022-11-17T11:48:26.924Z,4.53
2022-11-17T11:51:00.353Z,5.30
2022-11-17T11:53:41.799Z,4.30
2022-11-17T11:56:21.922Z,5.18
2022-11-17T11:59:04.317Z,6.32
2022-11-17T13:54:56.128Z,7.88
2022-11-17T14:01:14.637Z,8.75
2022-11-17T14:03:46.107Z,7.15
2022-11-17T14:29:34.780Z,7.30
2022-11-17T14:32:01.264Z,6.90
2022-11-17T14:34:27.782Z,6.05
2022-11-17T14:36:55.403Z,7.22
2022-11-17T14:39:22.619Z,6.88
2022-11-17T14:41:50.904Z,20.15
2022-11-17T14:44:17.558Z,89.05
2022-11-17T14:46:44.179Z,8.48
2022-11-17T14:49:10.742Z,7.57
2022-11-17T14:51:37.311Z,6.85
2022-11-17T14:54:04.124Z,6.70
2022-11-17T14:56:30.919Z,6.05
2022-11-17T14:58:59.239Z,8.73
2022-11-17T15:01:31.426Z,8.35
2022-11-17T15:04:15.380Z,7.78
2022-11-17T15:06:47.673Z,6.50
2022-11-17T15:09:16.433Z,8.85
2022-11-17T15:11:42.974Z,7.32
2022-11-17T15:14:10.900Z,7.45
2022-11-17T15:16:37.456Z,8.32
2022-11-17T15:19:04.069Z,8.13
2022-11-17T15:21:30.616Z,9.10
2022-11-17T15:23:57.358Z,7.53
2022-11-17T15:26:23.947Z,7.50
2022-11-17T15:28:50.730Z,6.68
2022-11-17T15:31:20.588Z,7.07
2022-11-17T15:33:48.286Z,7.97
2022-11-17T15:36:19.681Z,8.00
2022-11-17T15:38:47.726Z,7.72
2022-11-17T15:41:15.251Z,7.28
2022-11-17T15:43:43.850Z,8.18
2022-11-17T15:46:12.787Z,9.30
2022-11-17T15:48:43.233Z,8.88
2022-11-17T15:51:12.338Z,8.13
2022-11-17T15:53:39.568Z,8.73
2022-11-17T15:56:14.594Z,15.05
2022-11-17T15:58:42.592Z,10.32
2022-11-17T16:01:13.398Z,10.07
2022-11-17T16:03:41.540Z,9.00
2022-11-17T16:06:09.353Z,7.70
2022-11-17T16:08:36.672Z,9.77
2022-11-17T16:11:03.658Z,7.68
2022-11-17T16:13:30.438Z,8.95
2022-11-17T16:15:57.171Z,9.18
2022-11-17T16:18:24.629Z,8.30
2022-11-17T16:20:51.688Z,6.65
2022-11-17T16:25:47.489Z,9.25
2022-11-17T16:28:16.452Z,8.18
2022-11-17T16:30:43.013Z,8.25
2022-11-17T16:33:14.806Z,7.88
2022-11-17T16:35:41.739Z,8.70
2022-11-17T16:38:13.759Z,7.97
2022-11-17T16:40:41.256Z,7.25
2022-11-17T16:43:11.833Z,9.27
2022-11-17T16:45:44.361Z,7.75
2022-11-17T16:48:12.438Z,7.32
2022-11-17T16:50:40.466Z,7.95
2022-11-17T16:53:07.102Z,8.65
2022-11-17T16:55:37.309Z,8.15
2022-11-17T16:58:05.990Z,8.45
2022-11-17T17:00:34.900Z,8.95
2022-11-17T17:03:02.151Z,8.65
2022-11-17T17:05:31.790Z,10.10
2022-11-17T17:07:58.350Z,9.05
2022-11-17T17:10:25.067Z,10.68
2022-11-17T17:12:51.616Z,11.02
2022-11-17T17:15:18.366Z,7.13
2022-11-17T17:17:44.871Z,9.40
2022-11-17T17:20:11.782Z,8.93
2022-11-17T17:22:38.253Z,11.32
2022-11-17T17:25:05.280Z,11.45
2022-11-17T17:29:58.369Z,8.73
2022-11-17T17:32:24.930Z,11.10
2022-11-17T17:34:51.662Z,10.45
2022-11-17T17:37:18.266Z,9.73
2022-11-17T17:39:44.878Z,10.32
2022-11-17T17:42:12.784Z,10.23
2022-11-17T17:44:39.392Z,10.80
2022-11-17T17:47:06.534Z,11.07
2022-11-17T17:49:33.068Z,12.10
2022-11-17T17:51:59.550Z,11.95
2022-11-17T17:54:26.198Z,10.65
2022-11-17T17:56:52.937Z,10.73
2022-11-17T17:59:19.885Z,11.80
2022-11-17T18:01:47.773Z,11.32
2022-11-17T18:04:16.474Z,13.20
2022-11-17T18:06:47.072Z,10.23
2022-11-17T18:09:18.785Z,11.32
2022-11-17T18:11:47.896Z,10.15
2022-11-17T18:14:14.505Z,11.88
2022-11-17T18:16:41.018Z,11.25
2022-11-17T18:19:09.147Z,11.07
2022-11-17T18:21:36.206Z,11.25
2022-11-17T18:26:35.368Z,11.18
2022-11-17T18:29:05.437Z,12.25
2022-11-17T18:31:35.895Z,11.45
2022-11-17T18:34:05.153Z,11.13
2022-11-17T18:36:32.183Z,11.25
2022-11-17T18:43:52.734Z,10.40
2022-11-17T18:46:21.582Z,13.05
2022-11-17T18:48:51.603Z,12.40
2022-11-17T18:51:21.252Z,10.00
2022-11-17T18:53:49.097Z,11.35
2022-11-17T18:56:17.457Z,11.85
2022-11-17T18:58:44.489Z,12.27
2022-11-17T19:03:50.724Z,12.25
2022-11-17T19:06:19.223Z,11.43
2022-11-17T19:08:46.437Z,12.10
2022-11-17T19:11:13.027Z,11.48
2022-11-17T19:13:41.475Z,11.85
2022-11-17T19:16:10.181Z,12.93
2022-11-17T19:18:36.839Z,11.55
2022-11-17T19:21:05.058Z,13.23
2022-11-17T19:23:35.760Z,11.93
2022-11-17T19:26:07.343Z,11.85
2022-11-17T19:28:34.428Z,11.98
2022-11-17T19:33:33.467Z,11.77
2022-11-17T19:36:08.662Z,13.25
2022-11-17T19:38:38.609Z,14.73
2022-11-17T19:41:09.097Z,13.38
2022-11-17T19:43:41.712Z,13.15
2022-11-17T19:46:13.221Z,12.20
2022-11-17T19:48:40.487Z,13.85
2022-11-17T19:51:25.119Z,12.73
2022-11-17T19:53:54.170Z,13.10
2022-11-17T19:56:22.029Z,12.43
2022-11-17T19:58:49.844Z,13.32
2022-11-17T20:01:18.879Z,14.05
2022-11-17T20:03:46.356Z,12.05
2022-11-17T20:06:18.013Z,12.25
2022-11-17T20:08:44.733Z,13.00
2022-11-17T20:11:17.273Z,12.32
2022-11-17T20:13:44.541Z,13.45
2022-11-17T20:16:16.465Z,14.48
2022-11-17T20:18:44.408Z,13.40
2022-11-17T20:21:13.973Z,13.50
2022-11-17T20:23:40.781Z,14.25
2022-11-17T20:26:13.186Z,16.45
2022-11-17T20:28:39.962Z,13.75
2022-11-17T20:31:12.109Z,14.60
2022-11-17T20:33:39.799Z,14.68
2022-11-17T20:36:08.463Z,13.48
2022-11-17T20:38:36.118Z,14.35
2022-11-17T20:41:03.911Z,13.75
2022-11-17T20:43:30.677Z,16.00
2022-11-17T20:45:58.386Z,13.82
2022-11-17T20:48:25.599Z,17.58
2022-11-17T20:50:59.870Z,14.32
2022-11-17T20:53:27.750Z,14.73
2022-11-17T20:55:58.661Z,15.43
2022-11-17T20:58:26.191Z,15.13
2022-11-17T21:00:53.758Z,16.38
2022-11-17T21:03:21.187Z,16.92
2022-11-17T21:05:58.841Z,18.40
2022-11-17T21:08:27.922Z,17.95
2022-11-17T21:10:59.722Z,17.15
2022-11-17T21:13:27.064Z,17.50
2022-11-17T21:16:06.079Z,19.83
2022-11-17T21:18:33.347Z,19.42
2022-11-17T21:21:04.672Z,20.35
2022-11-17T21:23:31.474Z,19.73
2022-11-17T21:25:58.097Z,21.63
2022-11-17T21:28:24.682Z,20.77
2022-11-17T21:30:51.193Z,22.52
2022-11-17T21:33:17.699Z,22.75
2022-11-17T21:35:44.225Z,21.83
2022-11-17T21:38:11.178Z,22.90
2022-11-17T21:43:04.519Z,22.98
2022-11-17T21:45:32.912Z,23.55
2022-11-17T21:47:59.713Z,22.73
2022-11-17T21:50:26.372Z,23.92
2022-11-17T21:52:52.908Z,23.40
2022-11-17T21:55:19.460Z,24.35
2022-11-17T21:57:49.464Z,24.13
2022-11-17T22:00:16.550Z,23.50
2022-11-17T22:05:09.577Z,24.95
2022-11-17T22:07:36.119Z,24.55
2022-11-17T22:10:02.775Z,26.08
2022-11-17T22:12:29.276Z,25.02
2022-11-17T22:14:55.808Z,25.42
2022-11-17T22:17:22.322Z,25.73
2022-11-17T22:19:48.894Z,22.85
2022-11-17T22:22:15.406Z,24.83
2022-11-17T22:24:46.912Z,26.20
2022-11-17T22:27:16.070Z,29.75
2022-11-17T22:29:42.648Z,26.25
2022-11-17T22:32:09.195Z,24.58
2022-11-17T22:34:35.743Z,24.83
2022-11-17T22:37:02.343Z,27.85
2022-11-17T22:39:28.865Z,25.52
2022-11-17T22:41:55.396Z,25.00
2022-11-17T22:44:21.921Z,24.45
2022-11-17T22:46:48.494Z,24.02
2022-11-17T22:49:15.367Z,26.77
2022-11-17T22:52:01.074Z,23.00
2022-11-17T22:54:27.621Z,26.52
2022-11-17T22:56:54.247Z,24.42
2022-11-17T22:59:23.312Z,24.15
2022-11-17T23:01:49.860Z,24.15
2022-11-17T23:04:16.574Z,25.95
2022-11-17T23:06:43.746Z,23.75
2022-11-17T23:09:11.476Z,25.15
2022-11-17T23:11:38.672Z,26.65
2022-11-17T23:14:08.194Z,25.92
2022-11-17T23:16:35.170Z,24.08
2022-11-17T23:19:01.919Z,28.48
2022-11-17T23:21:28.429Z,25.05
2022-11-17T23:23:55.054Z,26.95
2022-11-17T23:26:22.331Z,27.52
2022-11-17T23:28:49.576Z,24.30
2022-11-17T23:31:17.536Z,26.73
2022-11-17T23:33:46.106Z,25.30
2022-11-17T23:36:15.266Z,24.83
2022-11-17T23:38:42.486Z,25.90
2022-11-17T23:41:11.837Z,29.02
2022-11-17T23:43:38.657Z,27.27
2022-11-17T23:46:08.215Z,25.30
2022-11-17T23:48:34.956Z,28.98
2022-11-17T23:51:13.631Z,26.15
2022-11-17T23:53:40.614Z,26.67
2022-11-17T23:58:35.345Z,26.50
